sensor_id;sensor_type;location;lat;lon;timestamp;P1;durP1;ratioP1;P2;durP2;ratioP2
82005;SDS011;71529;47.484;19.064;2023-09-19T05:22:15;8.55;;;2.80;;
82005;SDS011;71529;47.484;19.064;2023-09-19T05:24:45;4.22;;;2.40;;
82005;SDS011;71529;47.484;19.064;2023-09-19T05:27:16;5.03;;;2.40;;
82005;SDS011;71529;47.484;19.064;2023-09-19T05:29:44;3.55;;;2.17;;
82005;SDS011;71529;47.484;19.064;2023-09-19T05:32:12;5.50;;;2.00;;
82005;SDS011;71529;47.484;19.064;2023-09-19T05:34:40;2.95;;;1.70;;
82005;SDS011;71529;47.484;19.064;2023-09-19T05:37:09;1.60;;;1.50;;
82005;SDS011;71529;47.484;19.064;2023-09-19T05:39:38;2.95;;;1.98;;
82005;SDS011;71529;47.484;19.064;2023-09-19T05:42:06;1.85;;;1.60;;
82005;SDS011;71529;47.484;19.064;2023-09-19T05:44:35;3.13;;;1.55;;
82005;SDS011;71529;47.484;19.064;2023-09-19T05:47:03;3.75;;;1.77;;
82005;SDS011;71529;47.484;19.064;2023-09-19T05:49:32;3.03;;;1.52;;
82005;SDS011;71529;47.484;19.064;2023-09-19T05:52:00;1.85;;;1.25;;
82005;SDS011;71529;47.484;19.064;2023-09-19T05:54:28;2.08;;;1.25;;
82005;SDS011;71529;47.484;19.064;2023-09-19T05:56:58;1.92;;;1.38;;
82005;SDS011;71529;47.484;19.064;2023-09-19T05:59:26;2.10;;;1.40;;
82005;SDS011;71529;47.484;19.064;2023-09-19T06:01:54;3.03;;;1.55;;
82005;SDS011;71529;47.484;19.064;2023-09-19T06:04:23;3.40;;;1.35;;
82005;SDS011;71529;47.484;19.064;2023-09-19T06:06:52;1.42;;;1.30;;
82005;SDS011;71529;47.484;19.064;2023-09-19T06:09:20;4.40;;;1.98;;
82005;SDS011;71529;47.484;19.064;2023-09-19T06:11:50;2.03;;;1.40;;
82005;SDS011;71529;47.484;19.064;2023-09-19T06:14:20;2.58;;;1.13;;
82005;SDS011;71529;47.484;19.064;2023-09-19T06:16:50;2.35;;;1.20;;
82005;SDS011;71529;47.484;19.064;2023-09-19T06:19:21;2.00;;;1.45;;
82005;SDS011;71529;47.484;19.064;2023-09-19T06:21:52;2.53;;;1.45;;
82005;SDS011;71529;47.484;19.064;2023-09-19T06:24:21;6.97;;;2.97;;
82005;SDS011;71529;47.484;19.064;2023-09-19T06:26:49;8.02;;;3.65;;
82005;SDS011;71529;47.484;19.064;2023-09-19T06:29:20;2.95;;;1.90;;
82005;SDS011;71529;47.484;19.064;2023-09-19T06:31:50;3.47;;;2.00;;
82005;SDS011;71529;47.484;19.064;2023-09-19T06:34:18;1.67;;;1.30;;
82005;SDS011;71529;47.484;19.064;2023-09-19T06:36:46;1.92;;;1.27;;
82005;SDS011;71529;47.484;19.064;2023-09-19T06:39:15;4.80;;;1.33;;
82005;SDS011;71529;47.484;19.064;2023-09-19T06:41:43;6.63;;;2.33;;
82005;SDS011;71529;47.484;19.064;2023-09-19T06:44:12;3.88;;;1.40;;
82005;SDS011;71529;47.484;19.064;2023-09-19T06:46:41;5.00;;;1.50;;
82005;SDS011;71529;47.484;19.064;2023-09-19T06:49:14;1.35;;;1.23;;
82005;SDS011;71529;47.484;19.064;2023-09-19T06:51:42;2.88;;;1.52;;
82005;SDS011;71529;47.484;19.064;2023-09-19T06:54:11;2.30;;;1.50;;
82005;SDS011;71529;47.484;19.064;2023-09-19T06:56:39;2.33;;;1.80;;
82005;SDS011;71529;47.484;19.064;2023-09-19T06:59:08;5.15;;;1.38;;
82005;SDS011;71529;47.484;19.064;2023-09-19T07:01:36;2.15;;;1.27;;
82005;SDS011;71529;47.484;19.064;2023-09-19T07:04:06;6.25;;;1.70;;
82005;SDS011;71529;47.484;19.064;2023-09-19T07:06:34;4.38;;;1.77;;
82005;SDS011;71529;47.484;19.064;2023-09-19T07:09:02;6.93;;;1.77;;
82005;SDS011;71529;47.484;19.064;2023-09-19T07:11:33;4.35;;;1.70;;
82005;SDS011;71529;47.484;19.064;2023-09-19T07:14:01;2.35;;;1.55;;
82005;SDS011;71529;47.484;19.064;2023-09-19T07:16:30;2.40;;;1.10;;
82005;SDS011;71529;47.484;19.064;2023-09-19T07:18:58;4.72;;;1.58;;
82005;SDS011;71529;47.484;19.064;2023-09-19T07:21:27;3.92;;;1.15;;
82005;SDS011;71529;47.484;19.064;2023-09-19T07:23:56;1.92;;;1.30;;
82005;SDS011;71529;47.484;19.064;2023-09-19T07:26:24;2.10;;;1.00;;
82005;SDS011;71529;47.484;19.064;2023-09-19T07:28:53;5.13;;;2.05;;
82005;SDS011;71529;47.484;19.064;2023-09-19T07:31:21;7.28;;;2.67;;
82005;SDS011;71529;47.484;19.064;2023-09-19T07:33:50;2.95;;;2.20;;
82005;SDS011;71529;47.484;19.064;2023-09-19T07:36:20;6.63;;;2.97;;
82005;SDS011;71529;47.484;19.064;2023-09-19T07:38:52;2.72;;;2.05;;
82005;SDS011;71529;47.484;19.064;2023-09-19T07:41:32;2.60;;;1.92;;
82005;SDS011;71529;47.484;19.064;2023-09-19T07:44:00;4.25;;;1.88;;
82005;SDS011;71529;47.484;19.064;2023-09-19T07:46:29;3.70;;;2.20;;
82005;SDS011;71529;47.484;19.064;2023-09-19T07:48:58;6.38;;;1.73;;
82005;SDS011;71529;47.484;19.064;2023-09-19T07:51:27;3.67;;;1.67;;
82005;SDS011;71529;47.484;19.064;2023-09-19T07:53:57;3.13;;;2.00;;
82005;SDS011;71529;47.484;19.064;2023-09-19T07:56:25;2.20;;;1.73;;
82005;SDS011;71529;47.484;19.064;2023-09-19T07:58:54;5.50;;;1.90;;
82005;SDS011;71529;47.484;19.064;2023-09-19T08:01:24;3.80;;;2.47;;
82005;SDS011;71529;47.484;19.064;2023-09-19T08:03:54;5.05;;;2.42;;
82005;SDS011;71529;47.484;19.064;2023-09-19T08:06:22;10.23;;;2.92;;
82005;SDS011;71529;47.484;19.064;2023-09-19T08:08:50;3.47;;;2.17;;
82005;SDS011;71529;47.484;19.064;2023-09-19T08:11:22;7.70;;;3.33;;
82005;SDS011;71529;47.484;19.064;2023-09-19T08:13:51;4.15;;;2.75;;
82005;SDS011;71529;47.484;19.064;2023-09-19T08:16:19;8.68;;;3.60;;
82005;SDS011;71529;47.484;19.064;2023-09-19T08:18:49;2.88;;;2.15;;
82005;SDS011;71529;47.484;19.064;2023-09-19T08:21:21;3.60;;;2.45;;
82005;SDS011;71529;47.484;19.064;2023-09-19T08:23:50;5.00;;;2.00;;
82005;SDS011;71529;47.484;19.064;2023-09-19T08:26:19;3.53;;;2.20;;
82005;SDS011;71529;47.484;19.064;2023-09-19T08:28:49;4.35;;;1.70;;
82005;SDS011;71529;47.484;19.064;2023-09-19T08:31:19;3.83;;;1.90;;
82005;SDS011;71529;47.484;19.064;2023-09-19T08:33:48;5.88;;;2.53;;
82005;SDS011;71529;47.484;19.064;2023-09-19T08:36:17;5.05;;;2.35;;
82005;SDS011;71529;47.484;19.064;2023-09-19T08:38:45;4.68;;;2.85;;
82005;SDS011;71529;47.484;19.064;2023-09-19T08:41:13;4.10;;;3.03;;
82005;SDS011;71529;47.484;19.064;2023-09-19T08:43:42;4.65;;;2.45;;
82005;SDS011;71529;47.484;19.064;2023-09-19T08:46:14;5.10;;;2.83;;
82005;SDS011;71529;47.484;19.064;2023-09-19T08:48:45;2.97;;;2.20;;
82005;SDS011;71529;47.484;19.064;2023-09-19T08:51:18;3.78;;;1.90;;
82005;SDS011;71529;47.484;19.064;2023-09-19T08:53:50;3.28;;;1.95;;
82005;SDS011;71529;47.484;19.064;2023-09-19T08:56:19;2.42;;;1.92;;
82005;SDS011;71529;47.484;19.064;2023-09-19T08:58:53;4.43;;;2.00;;
82005;SDS011;71529;47.484;19.064;2023-09-19T09:01:26;2.85;;;2.05;;
82005;SDS011;71529;47.484;19.064;2023-09-19T09:03:56;3.80;;;2.33;;
82005;SDS011;71529;47.484;19.064;2023-09-19T09:06:25;1.77;;;1.50;;
82005;SDS011;71529;47.484;19.064;2023-09-19T09:08:54;3.20;;;1.70;;
82005;SDS011;71529;47.484;19.064;2023-09-19T09:11:23;3.88;;;1.75;;
82005;SDS011;71529;47.484;19.064;2023-09-19T09:13:51;3.08;;;1.90;;
82005;SDS011;71529;47.484;19.064;2023-09-19T09:16:19;4.47;;;1.80;;
82005;SDS011;71529;47.484;19.064;2023-09-19T09:18:50;8.18;;;3.10;;
82005;SDS011;71529;47.484;19.064;2023-09-19T09:21:20;22.90;;;3.60;;
82005;SDS011;71529;47.484;19.064;2023-09-19T09:23:48;26.20;;;4.30;;
82005;SDS011;71529;47.484;19.064;2023-09-19T09:26:25;21.48;;;3.58;;
82005;SDS011;71529;47.484;19.064;2023-09-19T09:29:09;9.57;;;3.65;;
82005;SDS011;71529;47.484;19.064;2023-09-19T09:31:37;5.32;;;3.83;;
82005;SDS011;71529;47.484;19.064;2023-09-19T09:34:09;3.70;;;2.65;;
82005;SDS011;71529;47.484;19.064;2023-09-19T09:36:41;8.20;;;3.20;;
82005;SDS011;71529;47.484;19.064;2023-09-19T09:39:09;5.47;;;2.50;;
82005;SDS011;71529;47.484;19.064;2023-09-19T09:41:45;13.15;;;2.88;;
82005;SDS011;71529;47.484;19.064;2023-09-19T09:44:13;8.57;;;5.38;;
82005;SDS011;71529;47.484;19.064;2023-09-19T09:46:45;9.55;;;4.25;;
82005;SDS011;71529;47.484;19.064;2023-09-19T09:49:41;6.82;;;3.03;;
82005;SDS011;71529;47.484;19.064;2023-09-19T09:52:28;7.40;;;3.00;;
82005;SDS011;71529;47.484;19.064;2023-09-19T09:54:58;6.57;;;2.25;;
82005;SDS011;71529;47.484;19.064;2023-09-19T09:57:33;9.20;;;7.13;;
82005;SDS011;71529;47.484;19.064;2023-09-19T10:00:02;6.70;;;3.35;;
82005;SDS011;71529;47.484;19.064;2023-09-19T10:02:46;5.45;;;2.67;;
82005;SDS011;71529;47.484;19.064;2023-09-19T10:05:16;6.68;;;2.55;;
82005;SDS011;71529;47.484;19.064;2023-09-19T10:08:10;4.45;;;1.70;;
82005;SDS011;71529;47.484;19.064;2023-09-19T10:10:41;5.03;;;2.00;;
82005;SDS011;71529;47.484;19.064;2023-09-19T10:13:21;4.35;;;2.20;;
82005;SDS011;71529;47.484;19.064;2023-09-19T10:15:54;5.57;;;1.65;;
82005;SDS011;71529;47.484;19.064;2023-09-19T10:18:25;12.50;;;2.63;;
82005;SDS011;71529;47.484;19.064;2023-09-19T10:20:57;3.92;;;2.28;;
82005;SDS011;71529;47.484;19.064;2023-09-19T10:23:30;4.03;;;1.95;;
82005;SDS011;71529;47.484;19.064;2023-09-19T10:26:01;2.88;;;2.22;;
82005;SDS011;71529;47.484;19.064;2023-09-19T10:28:29;3.63;;;1.83;;
82005;SDS011;71529;47.484;19.064;2023-09-19T10:31:00;6.95;;;3.08;;
82005;SDS011;71529;47.484;19.064;2023-09-19T10:33:32;2.88;;;1.98;;
82005;SDS011;71529;47.484;19.064;2023-09-19T10:36:06;3.75;;;2.05;;
82005;SDS011;71529;47.484;19.064;2023-09-19T10:38:36;3.88;;;2.03;;
82005;SDS011;71529;47.484;19.064;2023-09-19T10:41:07;5.15;;;2.72;;
82005;SDS011;71529;47.484;19.064;2023-09-19T10:43:38;2.30;;;1.70;;
82005;SDS011;71529;47.484;19.064;2023-09-19T10:46:11;2.15;;;1.67;;
82005;SDS011;71529;47.484;19.064;2023-09-19T10:48:40;3.53;;;1.75;;
82005;SDS011;71529;47.484;19.064;2023-09-19T10:51:12;4.47;;;2.55;;
82005;SDS011;71529;47.484;19.064;2023-09-19T10:53:45;4.40;;;2.67;;
82005;SDS011;71529;47.484;19.064;2023-09-19T10:56:19;5.10;;;2.97;;
82005;SDS011;71529;47.484;19.064;2023-09-19T10:58:51;3.30;;;2.35;;
82005;SDS011;71529;47.484;19.064;2023-09-19T11:01:19;4.18;;;1.98;;
82005;SDS011;71529;47.484;19.064;2023-09-19T11:03:48;3.22;;;2.20;;
82005;SDS011;71529;47.484;19.064;2023-09-19T11:06:38;2.63;;;1.95;;
82005;SDS011;71529;47.484;19.064;2023-09-19T11:09:08;4.15;;;2.10;;
82005;SDS011;71529;47.484;19.064;2023-09-19T11:11:49;2.60;;;2.03;;
82005;SDS011;71529;47.484;19.064;2023-09-19T11:14:30;6.47;;;3.38;;
82005;SDS011;71529;47.484;19.064;2023-09-19T11:20:22;4.03;;;2.53;;
82005;SDS011;71529;47.484;19.064;2023-09-19T11:23:18;3.38;;;1.80;;
82005;SDS011;71529;47.484;19.064;2023-09-19T11:25:53;3.25;;;2.00;;
82005;SDS011;71529;47.484;19.064;2023-09-19T11:28:32;4.13;;;2.00;;
82005;SDS011;71529;47.484;19.064;2023-09-19T11:34:38;2.65;;;2.05;;
82005;SDS011;71529;47.484;19.064;2023-09-19T11:40:36;4.85;;;1.95;;
82005;SDS011;71529;47.484;19.064;2023-09-19T11:46:07;5.45;;;2.35;;
82005;SDS011;71529;47.484;19.064;2023-09-19T11:48:35;5.10;;;1.90;;
82005;SDS011;71529;47.484;19.064;2023-09-19T11:51:12;1.75;;;1.58;;
82005;SDS011;71529;47.484;19.064;2023-09-19T11:53:46;4.43;;;1.90;;
82005;SDS011;71529;47.484;19.064;2023-09-19T11:56:18;3.15;;;2.42;;
82005;SDS011;71529;47.484;19.064;2023-09-19T11:58:49;6.20;;;2.90;;
82005;SDS011;71529;47.484;19.064;2023-09-19T12:01:21;4.90;;;2.67;;
82005;SDS011;71529;47.484;19.064;2023-09-19T12:03:52;2.42;;;2.13;;
82005;SDS011;71529;47.484;19.064;2023-09-19T12:06:24;5.60;;;2.55;;
82005;SDS011;71529;47.484;19.064;2023-09-19T12:08:53;4.15;;;3.28;;
82005;SDS011;71529;47.484;19.064;2023-09-19T12:11:23;5.03;;;2.63;;
82005;SDS011;71529;47.484;19.064;2023-09-19T12:13:55;1.75;;;1.52;;
82005;SDS011;71529;47.484;19.064;2023-09-19T12:16:27;1.65;;;1.45;;
82005;SDS011;71529;47.484;19.064;2023-09-19T12:18:57;4.95;;;3.20;;
82005;SDS011;71529;47.484;19.064;2023-09-19T12:21:45;3.40;;;2.58;;
82005;SDS011;71529;47.484;19.064;2023-09-19T12:24:25;4.38;;;2.30;;
82005;SDS011;71529;47.484;19.064;2023-09-19T12:27:02;5.55;;;2.10;;
82005;SDS011;71529;47.484;19.064;2023-09-19T12:29:41;4.90;;;2.33;;
82005;SDS011;71529;47.484;19.064;2023-09-19T12:32:10;3.88;;;2.10;;
82005;SDS011;71529;47.484;19.064;2023-09-19T12:34:39;4.93;;;2.40;;
82005;SDS011;71529;47.484;19.064;2023-09-19T12:37:10;3.50;;;2.38;;
82005;SDS011;71529;47.484;19.064;2023-09-19T12:39:42;9.07;;;2.88;;
82005;SDS011;71529;47.484;19.064;2023-09-19T12:42:19;4.15;;;2.47;;
82005;SDS011;71529;47.484;19.064;2023-09-19T12:44:50;4.75;;;2.10;;
82005;SDS011;71529;47.484;19.064;2023-09-19T12:47:22;3.78;;;2.33;;
82005;SDS011;71529;47.484;19.064;2023-09-19T12:52:36;6.68;;;3.47;;
82005;SDS011;71529;47.484;19.064;2023-09-19T12:55:05;10.63;;;3.60;;
82005;SDS011;71529;47.484;19.064;2023-09-19T12:57:36;5.75;;;3.13;;
82005;SDS011;71529;47.484;19.064;2023-09-19T13:00:06;4.40;;;2.10;;
82005;SDS011;71529;47.484;19.064;2023-09-19T13:02:37;5.68;;;2.90;;
82005;SDS011;71529;47.484;19.064;2023-09-19T13:05:53;5.07;;;3.83;;
82005;SDS011;71529;47.484;19.064;2023-09-19T13:08:26;4.88;;;3.63;;
82005;SDS011;71529;47.484;19.064;2023-09-19T13:11:05;5.13;;;3.28;;
82005;SDS011;71529;47.484;19.064;2023-09-19T13:13:37;5.80;;;2.85;;
82005;SDS011;71529;47.484;19.064;2023-09-19T13:16:07;4.43;;;2.35;;
82005;SDS011;71529;47.484;19.064;2023-09-19T13:18:44;2.58;;;2.10;;
82005;SDS011;71529;47.484;19.064;2023-09-19T13:21:13;3.58;;;2.05;;
82005;SDS011;71529;47.484;19.064;2023-09-19T13:23:50;5.50;;;2.10;;
82005;SDS011;71529;47.484;19.064;2023-09-19T13:26:18;2.92;;;2.00;;
82005;SDS011;71529;47.484;19.064;2023-09-19T13:28:47;3.47;;;2.20;;
82005;SDS011;71529;47.484;19.064;2023-09-19T13:31:16;6.50;;;2.20;;
82005;SDS011;71529;47.484;19.064;2023-09-19T13:33:47;3.55;;;2.08;;
82005;SDS011;71529;47.484;19.064;2023-09-19T13:36:17;4.95;;;2.38;;
82005;SDS011;71529;47.484;19.064;2023-09-19T13:38:45;4.35;;;2.85;;
82005;SDS011;71529;47.484;19.064;2023-09-19T13:41:15;8.40;;;4.25;;
82005;SDS011;71529;47.484;19.064;2023-09-19T13:43:44;5.95;;;4.20;;
82005;SDS011;71529;47.484;19.064;2023-09-19T13:46:15;4.20;;;3.45;;
82005;SDS011;71529;47.484;19.064;2023-09-19T13:48:53;4.75;;;2.92;;
82005;SDS011;71529;47.484;19.064;2023-09-19T13:51:22;6.28;;;2.78;;
82005;SDS011;71529;47.484;19.064;2023-09-19T13:53:50;3.00;;;2.47;;
82005;SDS011;71529;47.484;19.064;2023-09-19T13:56:19;4.40;;;2.08;;
82005;SDS011;71529;47.484;19.064;2023-09-19T13:58:47;5.25;;;2.83;;
82005;SDS011;71529;47.484;19.064;2023-09-19T14:01:15;5.22;;;3.45;;
82005;SDS011;71529;47.484;19.064;2023-09-19T14:03:43;5.40;;;3.33;;
82005;SDS011;71529;47.484;19.064;2023-09-19T14:06:15;5.80;;;3.33;;
82005;SDS011;71529;47.484;19.064;2023-09-19T14:08:43;5.55;;;3.20;;
82005;SDS011;71529;47.484;19.064;2023-09-19T14:11:14;5.85;;;3.40;;
82005;SDS011;71529;47.484;19.064;2023-09-19T14:13:43;9.63;;;3.60;;
82005;SDS011;71529;47.484;19.064;2023-09-19T14:16:15;4.88;;;3.00;;
82005;SDS011;71529;47.484;19.064;2023-09-19T14:18:44;5.72;;;3.00;;
82005;SDS011;71529;47.484;19.064;2023-09-19T14:21:14;3.25;;;2.38;;
82005;SDS011;71529;47.484;19.064;2023-09-19T14:23:43;4.03;;;2.67;;
82005;SDS011;71529;47.484;19.064;2023-09-19T14:26:12;5.15;;;2.60;;
82005;SDS011;71529;47.484;19.064;2023-09-19T14:28:41;7.20;;;2.88;;
82005;SDS011;71529;47.484;19.064;2023-09-19T14:31:10;4.97;;;2.47;;
82005;SDS011;71529;47.484;19.064;2023-09-19T14:33:39;7.53;;;3.58;;
82005;SDS011;71529;47.484;19.064;2023-09-19T14:36:09;13.63;;;4.22;;
82005;SDS011;71529;47.484;19.064;2023-09-19T14:38:39;5.68;;;4.30;;
82005;SDS011;71529;47.484;19.064;2023-09-19T14:41:08;6.85;;;3.13;;
82005;SDS011;71529;47.484;19.064;2023-09-19T14:43:36;7.25;;;3.60;;
82005;SDS011;71529;47.484;19.064;2023-09-19T14:46:05;6.60;;;4.00;;
82005;SDS011;71529;47.484;19.064;2023-09-19T14:48:34;6.15;;;3.20;;
82005;SDS011;71529;47.484;19.064;2023-09-19T14:51:02;6.00;;;3.22;;
82005;SDS011;71529;47.484;19.064;2023-09-19T14:53:31;6.18;;;3.45;;
82005;SDS011;71529;47.484;19.064;2023-09-19T14:56:01;3.08;;;2.35;;
82005;SDS011;71529;47.484;19.064;2023-09-19T14:58:31;5.00;;;2.88;;
82005;SDS011;71529;47.484;19.064;2023-09-19T15:01:03;5.95;;;4.57;;
82005;SDS011;71529;47.484;19.064;2023-09-19T15:03:32;8.63;;;5.05;;
82005;SDS011;71529;47.484;19.064;2023-09-19T15:06:03;7.65;;;4.68;;
82005;SDS011;71529;47.484;19.064;2023-09-19T15:08:33;11.27;;;5.85;;
82005;SDS011;71529;47.484;19.064;2023-09-19T15:11:03;8.20;;;4.50;;
82005;SDS011;71529;47.484;19.064;2023-09-19T15:13:34;7.43;;;4.32;;
82005;SDS011;71529;47.484;19.064;2023-09-19T15:16:04;11.20;;;5.97;;
82005;SDS011;71529;47.484;19.064;2023-09-19T15:18:36;8.90;;;5.45;;
82005;SDS011;71529;47.484;19.064;2023-09-19T15:21:06;10.77;;;5.47;;
82005;SDS011;71529;47.484;19.064;2023-09-19T15:23:38;7.00;;;4.95;;
82005;SDS011;71529;47.484;19.064;2023-09-19T15:26:10;10.35;;;5.35;;
82005;SDS011;71529;47.484;19.064;2023-09-19T15:28:40;7.28;;;5.35;;
82005;SDS011;71529;47.484;19.064;2023-09-19T15:31:09;8.77;;;4.60;;
82005;SDS011;71529;47.484;19.064;2023-09-19T15:33:40;4.57;;;3.30;;
82005;SDS011;71529;47.484;19.064;2023-09-19T15:36:10;7.28;;;3.13;;
82005;SDS011;71529;47.484;19.064;2023-09-19T15:41:36;9.85;;;4.35;;
82005;SDS011;71529;47.484;19.064;2023-09-19T15:44:10;24.38;;;5.57;;
82005;SDS011;71529;47.484;19.064;2023-09-19T15:46:41;48.42;;;6.57;;
82005;SDS011;71529;47.484;19.064;2023-09-19T15:49:11;46.95;;;5.82;;
82005;SDS011;71529;47.484;19.064;2023-09-19T15:51:40;28.20;;;4.90;;
82005;SDS011;71529;47.484;19.064;2023-09-19T15:54:12;175.20;;;13.55;;
82005;SDS011;71529;47.484;19.064;2023-09-19T15:56:44;115.32;;;8.00;;
82005;SDS011;71529;47.484;19.064;2023-09-19T15:59:15;142.77;;;9.95;;
82005;SDS011;71529;47.484;19.064;2023-09-19T16:01:44;35.15;;;3.85;;
82005;SDS011;71529;47.484;19.064;2023-09-19T16:04:13;119.15;;;9.55;;
82005;SDS011;71529;47.484;19.064;2023-09-19T16:06:43;84.32;;;7.70;;
82005;SDS011;71529;47.484;19.064;2023-09-19T16:09:12;50.60;;;5.85;;
82005;SDS011;71529;47.484;19.064;2023-09-19T16:11:41;42.03;;;3.88;;
82005;SDS011;71529;47.484;19.064;2023-09-19T16:14:13;43.38;;;4.80;;
82005;SDS011;71529;47.484;19.064;2023-09-19T16:16:44;31.95;;;4.32;;
82005;SDS011;71529;47.484;19.064;2023-09-19T16:19:13;45.15;;;5.47;;
82005;SDS011;71529;47.484;19.064;2023-09-19T16:21:43;27.70;;;4.75;;
82005;SDS011;71529;47.484;19.064;2023-09-19T16:24:13;15.40;;;3.95;;
82005;SDS011;71529;47.484;19.064;2023-09-19T16:26:45;18.33;;;3.88;;
82005;SDS011;71529;47.484;19.064;2023-09-19T16:29:13;15.68;;;3.67;;
82005;SDS011;71529;47.484;19.064;2023-09-19T16:31:41;10.18;;;2.95;;
82005;SDS011;71529;47.484;19.064;2023-09-19T16:34:11;33.15;;;4.00;;
82005;SDS011;71529;47.484;19.064;2023-09-19T16:36:40;6.28;;;2.92;;
82005;SDS011;71529;47.484;19.064;2023-09-19T16:39:10;6.53;;;2.42;;
82005;SDS011;71529;47.484;19.064;2023-09-19T16:41:39;9.07;;;3.50;;
82005;SDS011;71529;47.484;19.064;2023-09-19T16:44:10;7.95;;;2.85;;
82005;SDS011;71529;47.484;19.064;2023-09-19T16:46:41;8.93;;;2.20;;
82005;SDS011;71529;47.484;19.064;2023-09-19T16:49:10;4.55;;;2.75;;
82005;SDS011;71529;47.484;19.064;2023-09-19T16:51:39;5.80;;;2.50;;
82005;SDS011;71529;47.484;19.064;2023-09-19T16:54:10;8.63;;;3.08;;
82005;SDS011;71529;47.484;19.064;2023-09-19T16:56:39;8.63;;;3.25;;
82005;SDS011;71529;47.484;19.064;2023-09-19T16:59:07;6.20;;;3.15;;
82005;SDS011;71529;47.484;19.064;2023-09-19T17:01:38;4.35;;;3.13;;
82005;SDS011;71529;47.484;19.064;2023-09-19T17:04:07;9.13;;;3.42;;
82005;SDS011;71529;47.484;19.064;2023-09-19T17:06:36;3.95;;;2.53;;
82005;SDS011;71529;47.484;19.064;2023-09-19T17:09:07;5.05;;;3.35;;
82005;SDS011;71529;47.484;19.064;2023-09-19T17:11:37;4.53;;;3.47;;
82005;SDS011;71529;47.484;19.064;2023-09-19T17:14:06;5.65;;;3.65;;
82005;SDS011;71529;47.484;19.064;2023-09-19T17:16:36;4.35;;;2.70;;
82005;SDS011;71529;47.484;19.064;2023-09-19T17:19:09;7.93;;;4.68;;
82005;SDS011;71529;47.484;19.064;2023-09-19T17:21:39;11.98;;;4.70;;
82005;SDS011;71529;47.484;19.064;2023-09-19T17:24:11;6.33;;;4.07;;
82005;SDS011;71529;47.484;19.064;2023-09-19T17:26:42;24.58;;;4.85;;
82005;SDS011;71529;47.484;19.064;2023-09-19T17:29:15;23.23;;;5.35;;
82005;SDS011;71529;47.484;19.064;2023-09-19T17:31:47;23.27;;;5.07;;
82005;SDS011;71529;47.484;19.064;2023-09-19T17:34:17;27.20;;;4.28;;
82005;SDS011;71529;47.484;19.064;2023-09-19T17:36:48;21.20;;;4.20;;
82005;SDS011;71529;47.484;19.064;2023-09-19T17:39:18;14.38;;;3.72;;
82005;SDS011;71529;47.484;19.064;2023-09-19T17:41:47;9.05;;;2.95;;
82005;SDS011;71529;47.484;19.064;2023-09-19T17:46:57;4.82;;;2.78;;
82005;SDS011;71529;47.484;19.064;2023-09-19T17:49:28;7.05;;;3.03;;
82005;SDS011;71529;47.484;19.064;2023-09-19T17:52:00;6.03;;;2.97;;
82005;SDS011;71529;47.484;19.064;2023-09-19T17:54:33;7.57;;;3.28;;
82005;SDS011;71529;47.484;19.064;2023-09-19T17:57:09;7.50;;;3.20;;
82005;SDS011;71529;47.484;19.064;2023-09-19T17:59:42;4.03;;;3.10;;
82005;SDS011;71529;47.484;19.064;2023-09-19T18:02:15;4.22;;;2.88;;
82005;SDS011;71529;47.484;19.064;2023-09-19T18:07:18;6.50;;;2.80;;
82005;SDS011;71529;47.484;19.064;2023-09-19T18:09:50;7.13;;;2.72;;
82005;SDS011;71529;47.484;19.064;2023-09-19T18:12:22;6.20;;;2.58;;
82005;SDS011;71529;47.484;19.064;2023-09-19T18:14:53;3.75;;;2.58;;
82005;SDS011;71529;47.484;19.064;2023-09-19T18:17:27;5.78;;;2.85;;
82005;SDS011;71529;47.484;19.064;2023-09-19T18:20:00;6.82;;;3.70;;
82005;SDS011;71529;47.484;19.064;2023-09-19T18:22:36;6.03;;;3.03;;
82005;SDS011;71529;47.484;19.064;2023-09-19T18:25:10;7.93;;;3.97;;
82005;SDS011;71529;47.484;19.064;2023-09-19T18:27:42;9.65;;;3.40;;
82005;SDS011;71529;47.484;19.064;2023-09-19T18:30:15;6.03;;;3.60;;
82005;SDS011;71529;47.484;19.064;2023-09-19T18:32:46;5.63;;;3.67;;
82005;SDS011;71529;47.484;19.064;2023-09-19T18:35:23;9.73;;;3.40;;
82005;SDS011;71529;47.484;19.064;2023-09-19T18:37:54;8.00;;;3.00;;
82005;SDS011;71529;47.484;19.064;2023-09-19T18:40:24;4.95;;;2.95;;
82005;SDS011;71529;47.484;19.064;2023-09-19T18:42:53;4.72;;;3.10;;
82005;SDS011;71529;47.484;19.064;2023-09-19T18:45:24;4.43;;;2.83;;
82005;SDS011;71529;47.484;19.064;2023-09-19T18:48:08;5.38;;;2.50;;
82005;SDS011;71529;47.484;19.064;2023-09-19T18:50:40;7.38;;;3.30;;
82005;SDS011;71529;47.484;19.064;2023-09-19T18:53:16;11.80;;;3.22;;
82005;SDS011;71529;47.484;19.064;2023-09-19T18:55:46;4.57;;;3.05;;
82005;SDS011;71529;47.484;19.064;2023-09-19T18:58:17;6.60;;;3.80;;
82005;SDS011;71529;47.484;19.064;2023-09-19T19:00:49;6.80;;;3.83;;
82005;SDS011;71529;47.484;19.064;2023-09-19T19:03:20;5.90;;;4.30;;
82005;SDS011;71529;47.484;19.064;2023-09-19T19:05:52;7.22;;;4.07;;
82005;SDS011;71529;47.484;19.064;2023-09-19T19:08:22;6.05;;;3.55;;
82005;SDS011;71529;47.484;19.064;2023-09-19T19:10:52;6.60;;;3.58;;
82005;SDS011;71529;47.484;19.064;2023-09-19T19:13:24;4.60;;;3.17;;
82005;SDS011;71529;47.484;19.064;2023-09-19T19:15:58;11.90;;;3.22;;
82005;SDS011;71529;47.484;19.064;2023-09-19T19:18:29;5.65;;;2.92;;
82005;SDS011;71529;47.484;19.064;2023-09-19T19:21:00;4.03;;;2.88;;
82005;SDS011;71529;47.484;19.064;2023-09-19T19:23:33;5.20;;;2.88;;
82005;SDS011;71529;47.484;19.064;2023-09-19T19:26:04;5.13;;;2.97;;
82005;SDS011;71529;47.484;19.064;2023-09-19T19:28:39;5.20;;;3.00;;
82005;SDS011;71529;47.484;19.064;2023-09-19T19:31:12;6.88;;;3.38;;
82005;SDS011;71529;47.484;19.064;2023-09-19T19:33:45;5.32;;;3.60;;
82005;SDS011;71529;47.484;19.064;2023-09-19T19:36:15;6.13;;;3.38;;
82005;SDS011;71529;47.484;19.064;2023-09-19T19:38:45;3.30;;;2.42;;
82005;SDS011;71529;47.484;19.064;2023-09-19T19:41:16;4.53;;;3.35;;
82005;SDS011;71529;47.484;19.064;2023-09-19T19:43:48;3.95;;;2.45;;
82005;SDS011;71529;47.484;19.064;2023-09-19T19:46:19;4.22;;;2.70;;
82005;SDS011;71529;47.484;19.064;2023-09-19T19:48:52;5.03;;;3.53;;
82005;SDS011;71529;47.484;19.064;2023-09-19T19:51:22;7.18;;;3.53;;
82005;SDS011;71529;47.484;19.064;2023-09-19T19:53:52;5.80;;;3.30;;
82005;SDS011;71529;47.484;19.064;2023-09-19T19:56:24;5.43;;;3.38;;
82005;SDS011;71529;47.484;19.064;2023-09-19T19:58:57;5.45;;;2.90;;
82005;SDS011;71529;47.484;19.064;2023-09-19T20:01:27;3.38;;;2.50;;
82005;SDS011;71529;47.484;19.064;2023-09-19T20:03:59;4.05;;;2.80;;
82005;SDS011;71529;47.484;19.064;2023-09-19T20:06:30;4.30;;;2.70;;
82005;SDS011;71529;47.484;19.064;2023-09-19T20:08:59;7.65;;;4.10;;
82005;SDS011;71529;47.484;19.064;2023-09-19T20:11:32;6.53;;;3.30;;
82005;SDS011;71529;47.484;19.064;2023-09-19T20:14:04;9.45;;;3.55;;
82005;SDS011;71529;47.484;19.064;2023-09-19T20:16:34;6.88;;;3.30;;
82005;SDS011;71529;47.484;19.064;2023-09-19T20:19:05;4.82;;;3.00;;
82005;SDS011;71529;47.484;19.064;2023-09-19T20:21:34;4.63;;;3.08;;
82005;SDS011;71529;47.484;19.064;2023-09-19T20:24:07;5.70;;;3.27;;
82005;SDS011;71529;47.484;19.064;2023-09-19T20:26:39;4.47;;;2.92;;
82005;SDS011;71529;47.484;19.064;2023-09-19T20:29:10;8.82;;;3.20;;
82005;SDS011;71529;47.484;19.064;2023-09-19T20:31:41;6.05;;;3.30;;
82005;SDS011;71529;47.484;19.064;2023-09-19T20:34:12;8.40;;;3.50;;
82005;SDS011;71529;47.484;19.064;2023-09-19T20:36:42;4.88;;;2.95;;
82005;SDS011;71529;47.484;19.064;2023-09-19T20:39:12;7.25;;;2.95;;
82005;SDS011;71529;47.484;19.064;2023-09-19T20:41:42;8.15;;;3.42;;